createdAt,value
2022-11-12T00:00:32.072Z,99.90
2022-11-12T00:03:20.545Z,99.90
2022-11-12T00:06:07.613Z,99.90
2022-11-12T00:08:54.495Z,99.90
2022-11-12T00:11:41.415Z,99.90
2022-11-12T00:14:28.270Z,99.90
2022-11-12T00:17:15.354Z,99.90
2022-11-12T00:20:04.164Z,99.90
2022-11-12T00:22:51.130Z,99.90
2022-11-12T00:25:38.233Z,99.90
2022-11-12T00:28:25.572Z,99.90
2022-11-12T00:31:13.080Z,99.90
2022-11-12T00:33:59.784Z,99.90
2022-11-12T00:36:48.184Z,99.90
2022-11-12T00:39:35.045Z,99.90
2022-11-12T00:42:22.077Z,99.90
2022-11-12T00:45:09.693Z,99.90
2022-11-12T00:47:57.273Z,99.90
2022-11-12T00:50:44.189Z,99.90
2022-11-12T00:53:32.945Z,99.90
2022-11-12T00:56:19.587Z,99.90
2022-11-12T00:59:06.415Z,99.90
2022-11-12T01:01:53.570Z,99.90
2022-11-12T01:04:40.296Z,99.90
2022-11-12T01:07:28.336Z,99.90
2022-11-12T01:10:16.521Z,99.90
2022-11-12T01:13:03.237Z,99.90
2022-11-12T01:15:50.435Z,99.90
2022-11-12T01:18:37.398Z,99.90
2022-11-12T01:21:26.264Z,99.90
2022-11-12T01:24:13.245Z,99.90
2022-11-12T01:27:01.458Z,99.90
2022-11-12T01:29:48.170Z,99.90
2022-11-12T01:32:38.347Z,99.90
2022-11-12T01:35:25.197Z,99.90
2022-11-12T01:38:12.189Z,99.90
2022-11-12T01:40:59.163Z,99.90
2022-11-12T01:43:47.757Z,99.90
2022-11-12T01:46:38.522Z,99.90
2022-11-12T01:49:29.752Z,99.90
2022-11-12T01:52:21.594Z,99.90
2022-11-12T01:55:12.271Z,99.90
2022-11-12T01:58:06.355Z,99.90
2022-11-12T02:00:54.961Z,99.90
2022-11-12T02:03:41.667Z,99.90
2022-11-12T02:06:28.330Z,99.90
2022-11-12T02:09:15.735Z,99.90
2022-11-12T02:12:03.120Z,99.90
2022-11-12T02:14:49.088Z,99.90
2022-11-12T02:17:37.504Z,99.90
2022-11-12T02:20:24.538Z,99.90
2022-11-12T02:23:12.747Z,99.90
2022-11-12T02:26:00.804Z,99.90
2022-11-12T02:28:47.661Z,99.90
2022-11-12T02:31:35.186Z,99.90
2022-11-12T02:34:21.926Z,99.90
2022-11-12T02:37:09.207Z,99.90
2022-11-12T02:39:57.453Z,99.90
2022-11-12T02:42:44.745Z,99.90
2022-11-12T02:45:32.111Z,99.90
2022-11-12T02:48:19.489Z,99.90
2022-11-12T02:51:07.060Z,99.90
2022-11-12T02:53:53.891Z,99.90
2022-11-12T02:56:42.342Z,99.90
2022-11-12T02:59:29.912Z,99.90
2022-11-12T03:02:18.902Z,99.90
2022-11-12T03:05:06.192Z,99.90
2022-11-12T03:07:57.901Z,99.90
2022-11-12T03:10:44.509Z,99.90
2022-11-12T03:13:33.100Z,99.90
2022-11-12T03:16:20.106Z,99.90
2022-11-12T03:19:10.148Z,99.90
2022-11-12T03:21:57.032Z,99.90
2022-11-12T03:24:44.024Z,99.90
2022-11-12T03:27:31.044Z,99.90
2022-11-12T03:30:22.221Z,99.90
2022-11-12T03:33:09.992Z,99.90
2022-11-12T03:35:57.692Z,99.90
2022-11-12T03:38:44.244Z,99.90
2022-11-12T03:41:31.072Z,99.90
2022-11-12T03:44:18.011Z,99.90
2022-11-12T03:47:06.296Z,99.90
2022-11-12T03:49:53.009Z,99.90
2022-11-12T03:52:40.232Z,99.90
2022-11-12T03:55:29.312Z,99.90
2022-11-12T03:58:16.034Z,99.90
2022-11-12T04:01:03.062Z,99.90
2022-11-12T04:03:52.011Z,99.90
2022-11-12T04:06:56.431Z,99.90
2022-11-12T04:09:43.332Z,99.90
2022-11-12T04:12:47.875Z,99.90
2022-11-12T04:15:35.032Z,99.90
2022-11-12T04:18:39.717Z,99.90
2022-11-12T04:21:49.750Z,99.90
2022-11-12T04:24:55.801Z,99.90
2022-11-12T04:27:42.648Z,99.90
2022-11-12T04:30:28.824Z,99.90
2022-11-12T04:33:15.718Z,99.90
2022-11-12T04:36:02.690Z,99.90
2022-11-12T04:38:50.933Z,99.90
2022-11-12T04:41:55.162Z,99.90
2022-11-12T04:45:01.182Z,99.90
2022-11-12T04:47:48.602Z,99.90
2022-11-12T04:50:35.681Z,99.90
2022-11-12T04:53:23.401Z,99.90
2022-11-12T04:56:11.435Z,99.90
2022-11-12T04:58:58.388Z,99.90
2022-11-12T05:01:45.372Z,99.90
2022-11-12T05:04:32.158Z,99.90
2022-11-12T05:07:19.452Z,99.90
2022-11-12T05:10:06.808Z,99.90
2022-11-12T05:12:54.989Z,99.90
2022-11-12T05:15:41.592Z,99.90
2022-11-12T05:18:28.542Z,99.90
2022-11-12T05:21:32.929Z,99.90
2022-11-12T05:24:40.532Z,99.90
2022-11-12T05:27:26.702Z,99.90
2022-11-12T05:30:15.668Z,99.90
2022-11-12T05:33:02.297Z,99.90
2022-11-12T05:35:49.321Z,99.90
2022-11-12T05:38:38.148Z,99.90
2022-11-12T05:41:25.065Z,99.90
2022-11-12T05:44:11.907Z,99.90
2022-11-12T05:47:00.623Z,99.90
2022-11-12T05:49:47.340Z,99.90
2022-11-12T05:52:34.149Z,99.90
2022-11-12T05:55:21.204Z,99.90
2022-11-12T05:58:08.688Z,99.90
2022-11-12T06:00:55.732Z,99.90
2022-11-12T06:03:44.178Z,99.90
2022-11-12T06:06:56.144Z,99.90
2022-11-12T06:09:43.089Z,99.90
2022-11-12T06:12:30.310Z,99.90
2022-11-12T06:15:17.051Z,99.90
2022-11-12T06:18:03.742Z,99.90
2022-11-12T06:21:06.019Z,99.90
2022-11-12T06:23:54.603Z,99.90
2022-11-12T06:26:41.592Z,99.90
2022-11-12T06:29:30.064Z,99.90
2022-11-12T06:32:17.099Z,99.90
2022-11-12T06:35:03.966Z,99.90
2022-11-12T06:37:52.355Z,99.90
2022-11-12T06:40:39.137Z,99.90
2022-11-12T06:43:26.516Z,99.90
2022-11-12T06:46:15.619Z,99.90
2022-11-12T06:49:02.275Z,99.90
2022-11-12T06:51:51.688Z,99.90
2022-11-12T06:54:40.002Z,99.90
2022-11-12T06:57:26.963Z,99.90
2022-11-12T07:00:14.863Z,99.90
2022-11-12T07:03:06.561Z,99.90
2022-11-12T07:05:54.459Z,99.90
2022-11-12T07:08:41.883Z,99.90
2022-11-12T07:11:30.263Z,99.90
2022-11-12T07:14:16.924Z,99.90
2022-11-12T07:17:03.909Z,99.90
2022-11-12T07:19:50.830Z,99.90
2022-11-12T07:22:37.767Z,99.90
2022-11-12T07:25:24.771Z,99.90
2022-11-12T07:28:13.189Z,99.90
2022-11-12T07:31:01.423Z,99.90
2022-11-12T07:33:49.839Z,97.10
2022-11-12T07:36:36.906Z,93.80
2022-11-12T07:39:23.785Z,91.50
2022-11-12T07:42:11.493Z,88.20
2022-11-12T07:44:59.545Z,83.20
2022-11-12T07:47:46.439Z,65.70
2022-11-12T07:50:33.300Z,63.10
2022-11-12T07:53:20.405Z,52.70
2022-11-12T07:56:07.455Z,47.20
2022-11-12T07:58:55.280Z,32.30
2022-11-12T08:01:43.390Z,29.40
2022-11-12T08:04:30.765Z,17.90
2022-11-12T08:07:17.684Z,3.80
2022-11-12T08:10:04.347Z,6.00
2022-11-12T08:12:50.999Z,5.80
2022-11-12T08:15:38.585Z,1.00
2022-11-12T08:18:27.606Z,1.00
2022-11-12T08:21:16.831Z,1.00
2022-11-12T08:24:04.018Z,1.00
2022-11-12T08:26:55.086Z,1.00
2022-11-12T08:29:42.240Z,1.00
2022-11-12T08:32:29.349Z,1.00
2022-11-12T08:35:17.747Z,1.00
2022-11-12T08:38:06.594Z,1.00
2022-11-12T08:40:53.695Z,99.90
2022-11-12T08:43:42.946Z,99.90
2022-11-12T08:46:30.020Z,1.00
2022-11-12T08:49:16.904Z,1.00
2022-11-12T08:52:05.747Z,34.40
2022-11-12T08:54:52.616Z,99.90
2022-11-12T08:57:42.667Z,99.90
2022-11-12T09:00:30.359Z,99.90
2022-11-12T09:03:19.273Z,99.90
2022-11-12T09:06:07.099Z,99.90
2022-11-12T09:08:55.051Z,99.90
2022-11-12T09:11:42.849Z,99.90
2022-11-12T09:14:29.962Z,99.90
2022-11-12T09:17:17.229Z,99.90
2022-11-12T09:20:03.787Z,99.90
2022-11-12T09:22:50.601Z,99.90
2022-11-12T09:25:39.190Z,99.90
2022-11-12T09:28:26.584Z,99.90
2022-11-12T09:31:13.801Z,99.90
2022-11-12T09:34:05.984Z,1.00
2022-11-12T09:50:10.046Z,1.00
2022-11-12T09:53:04.116Z,99.90
2022-11-12T09:55:51.340Z,99.90
2022-11-12T09:58:38.387Z,99.90
2022-11-12T10:01:39.834Z,99.90
2022-11-12T10:04:50.956Z,99.90
2022-11-12T10:07:54.011Z,99.90
2022-11-12T10:10:47.089Z,99.90
2022-11-12T10:13:47.211Z,99.90
2022-11-12T10:16:50.152Z,12.40
2022-11-12T10:19:56.348Z,66.20
2022-11-12T10:22:59.543Z,1.00
2022-11-12T10:25:50.656Z,1.00
2022-11-12T10:28:44.532Z,1.00
2022-11-12T10:31:31.611Z,81.70
2022-11-12T10:34:20.632Z,90.00
2022-11-12T10:37:12.265Z,1.00
2022-11-12T10:39:58.965Z,1.00
2022-11-12T10:42:59.522Z,1.00
2022-11-12T10:45:48.249Z,1.00
2022-11-12T10:48:36.612Z,1.00
2022-11-12T10:51:29.027Z,1.00
2022-11-12T10:54:29.753Z,1.00
2022-11-12T10:57:24.260Z,1.00
2022-11-12T11:00:21.104Z,1.00
2022-11-12T11:03:25.501Z,62.90
2022-11-12T11:06:22.816Z,99.90
2022-11-12T11:09:16.178Z,99.90
2022-11-12T11:12:03.124Z,99.90
2022-11-12T11:15:08.318Z,99.90
2022-11-12T11:17:57.204Z,99.90
2022-11-12T11:20:48.708Z,99.90
2022-11-12T11:23:40.269Z,99.90
2022-11-12T11:26:34.116Z,99.90
2022-11-12T11:29:34.239Z,99.90
2022-11-12T11:32:38.977Z,99.90
2022-11-12T11:35:35.807Z,99.90
2022-11-12T11:38:34.758Z,99.90
2022-11-12T11:41:39.668Z,99.90
2022-11-12T11:44:38.376Z,1.00
2022-11-12T11:47:59.454Z,1.00
2022-11-12T11:50:58.244Z,1.00
2022-11-12T11:53:52.357Z,99.90
2022-11-12T11:56:43.298Z,99.90
2022-11-12T11:59:40.819Z,99.90
2022-11-12T12:02:42.902Z,99.90
2022-11-12T12:05:40.239Z,99.90
2022-11-12T12:08:42.371Z,99.90
2022-11-12T12:11:35.687Z,99.90
2022-11-12T12:14:41.485Z,65.70
2022-11-12T12:17:40.636Z,88.20
2022-11-12T12:20:35.790Z,99.90
2022-11-12T12:23:28.584Z,99.90
2022-11-12T12:26:21.587Z,45.50
2022-11-12T12:29:13.372Z,3.30
2022-11-12T12:32:07.157Z,99.90
2022-11-12T12:35:00.453Z,99.90
2022-11-12T12:37:53.004Z,99.90
2022-11-12T12:40:47.407Z,99.90
2022-11-12T12:43:40.409Z,99.90
2022-11-12T12:46:30.272Z,99.90
2022-11-12T12:49:20.111Z,99.90
2022-11-12T12:52:07.157Z,1.00
2022-11-12T12:54:59.006Z,1.00
2022-11-12T12:57:46.140Z,99.90
2022-11-12T13:00:38.969Z,99.90
2022-11-12T13:03:51.037Z,99.90
2022-11-12T13:06:41.042Z,1.00
2022-11-12T13:09:28.531Z,1.00
2022-11-12T13:12:24.003Z,1.00
2022-11-12T13:15:15.392Z,1.00
2022-11-12T13:18:03.757Z,17.80
2022-11-12T13:21:10.406Z,99.20
2022-11-12T13:24:10.704Z,1.00
2022-11-12T13:26:58.757Z,47.70
2022-11-12T13:29:47.814Z,1.00
2022-11-12T13:32:37.360Z,99.90
2022-11-12T13:35:34.768Z,99.90
2022-11-12T13:38:21.566Z,1.00
2022-11-12T13:41:15.765Z,1.00
2022-11-12T13:44:07.148Z,1.00
2022-11-12T13:46:56.094Z,1.00
2022-11-12T13:49:43.839Z,1.00
2022-11-12T13:52:32.400Z,1.00
2022-11-12T13:55:21.261Z,75.70
2022-11-12T13:58:20.052Z,99.90
2022-11-12T14:01:08.691Z,99.90
2022-11-12T14:03:55.587Z,99.90
2022-11-12T14:06:45.114Z,99.90
2022-11-12T14:09:53.951Z,1.00
2022-11-12T14:13:06.843Z,10.00
2022-11-12T14:16:05.192Z,99.90
2022-11-12T14:19:07.894Z,1.00
2022-11-12T14:22:02.283Z,1.00
2022-11-12T14:24:55.318Z,99.90
2022-11-12T14:27:42.714Z,1.00
2022-11-12T14:30:32.084Z,99.90
2022-11-12T14:33:21.813Z,99.90
2022-11-12T14:36:15.000Z,1.00
2022-11-12T14:39:01.962Z,1.00
2022-11-12T14:41:51.018Z,99.90
2022-11-12T14:44:39.317Z,1.00
2022-11-12T14:47:26.248Z,99.90
2022-11-12T14:50:17.222Z,1.00
2022-11-12T14:53:07.530Z,99.90
2022-11-12T14:55:56.300Z,99.90
2022-11-12T14:58:44.463Z,99.90
2022-11-12T15:02:55.590Z,99.90
2022-11-12T15:04:43.701Z,99.90
2022-11-12T15:07:33.494Z,99.90
2022-11-12T15:10:31.430Z,99.90
2022-11-12T15:13:21.625Z,99.90
2022-11-12T15:16:11.751Z,99.90
2022-11-12T15:19:09.104Z,99.90
2022-11-12T15:21:58.888Z,99.90
2022-11-12T15:24:47.705Z,99.90
2022-11-12T15:27:38.166Z,99.90
2022-11-12T15:30:27.609Z,99.90
2022-11-12T15:33:22.278Z,99.90
2022-11-12T15:36:18.090Z,99.90
2022-11-12T15:39:05.311Z,99.90
2022-11-12T15:42:02.008Z,99.90
2022-11-12T15:44:49.880Z,99.90
2022-11-12T15:47:36.615Z,99.90
2022-11-12T15:50:25.761Z,99.90
2022-11-12T15:53:12.663Z,99.90
2022-11-12T15:55:59.695Z,99.90
2022-11-12T15:58:46.466Z,99.90
2022-11-12T16:01:33.536Z,99.90
2022-11-12T16:04:20.582Z,99.90
2022-11-12T16:07:10.425Z,99.90
2022-11-12T16:09:57.344Z,99.90
2022-11-12T16:12:45.378Z,99.90
2022-11-12T16:15:32.318Z,99.90
2022-11-12T16:18:18.932Z,99.90
2022-11-12T16:21:06.725Z,99.90
2022-11-12T16:23:55.460Z,99.90
2022-11-12T16:26:42.281Z,99.90
2022-11-12T16:29:29.196Z,99.90
2022-11-12T16:32:16.821Z,99.90
2022-11-12T16:35:03.959Z,99.90
2022-11-12T16:37:51.358Z,99.90
2022-11-12T16:40:40.165Z,99.90
2022-11-12T16:43:27.362Z,99.90
2022-11-12T16:46:26.007Z,99.90
2022-11-12T16:49:17.613Z,99.90
2022-11-12T16:52:04.938Z,99.90
2022-11-12T16:54:51.659Z,99.90
2022-11-12T16:57:40.230Z,99.90
2022-11-12T17:00:28.067Z,99.90
2022-11-12T17:03:15.900Z,99.90
2022-11-12T17:06:03.442Z,99.90
2022-11-12T17:08:54.001Z,99.90
2022-11-12T17:11:40.792Z,99.90
2022-11-12T17:14:29.248Z,99.90
2022-11-12T17:17:16.063Z,99.90
2022-11-12T17:20:02.927Z,99.90
2022-11-12T17:22:55.210Z,99.90
2022-11-12T17:25:42.530Z,99.90
2022-11-12T17:28:30.732Z,99.90
2022-11-12T17:31:20.552Z,99.90
2022-11-12T17:34:07.486Z,99.90
2022-11-12T17:36:54.348Z,99.90
2022-11-12T17:39:41.442Z,99.90
2022-11-12T17:42:28.440Z,99.90
2022-11-12T17:45:15.455Z,99.90
2022-11-12T17:48:03.807Z,99.90
2022-11-12T17:50:51.764Z,99.90
2022-11-12T17:53:39.990Z,99.90
2022-11-12T17:56:27.093Z,99.90
2022-11-12T17:59:14.192Z,99.90
2022-11-12T18:02:01.082Z,99.90
2022-11-12T18:04:49.278Z,99.90
2022-11-12T18:07:36.031Z,99.90
2022-11-12T18:10:23.560Z,99.90
2022-11-12T18:13:10.476Z,99.90
2022-11-12T18:15:57.451Z,99.90
2022-11-12T18:18:44.841Z,99.90
2022-11-12T18:21:33.092Z,99.90
2022-11-12T18:24:20.064Z,99.90
2022-11-12T18:27:07.590Z,99.90
2022-11-12T18:29:55.129Z,99.90
2022-11-12T18:32:42.649Z,99.90
2022-11-12T18:35:30.248Z,99.90
2022-11-12T18:38:18.565Z,99.90
2022-11-12T18:41:06.967Z,99.90
2022-11-12T18:43:54.396Z,99.90
2022-11-12T18:46:41.347Z,99.90
2022-11-12T18:49:28.298Z,99.90
2022-11-12T18:52:15.221Z,99.90
2022-11-12T18:55:03.930Z,99.90
2022-11-12T18:57:50.888Z,99.90
2022-11-12T19:00:38.320Z,99.90
2022-11-12T19:03:25.398Z,99.90
2022-11-12T19:06:13.865Z,99.90
2022-11-12T19:09:01.440Z,99.90
2022-11-12T19:11:56.775Z,99.90
2022-11-12T19:14:44.095Z,99.90
2022-11-12T19:17:31.429Z,99.90
2022-11-12T19:20:18.462Z,99.90
2022-11-12T19:23:05.183Z,99.90
2022-11-12T19:25:52.101Z,99.90
2022-11-12T19:28:41.078Z,99.90
2022-11-12T19:31:28.203Z,99.90
2022-11-12T19:34:14.998Z,99.90
2022-11-12T19:40:09.933Z,99.90
2022-11-12T19:42:57.086Z,99.90
2022-11-12T19:45:45.479Z,99.90
2022-11-12T19:48:32.180Z,99.90
2022-11-12T19:51:18.934Z,99.90
2022-11-12T19:54:07.604Z,99.90
2022-11-12T19:56:54.389Z,99.90
2022-11-12T19:59:41.295Z,99.90
2022-11-12T20:02:30.286Z,99.90
2022-11-12T20:05:18.179Z,99.90
2022-11-12T20:08:05.219Z,99.90
2022-11-12T20:10:52.550Z,99.90
2022-11-12T20:13:39.956Z,99.90
2022-11-12T20:16:27.294Z,99.90
2022-11-12T20:19:15.598Z,99.90
2022-11-12T20:22:02.240Z,99.90
2022-11-12T20:24:49.920Z,99.90
2022-11-12T20:27:36.588Z,99.90
2022-11-12T20:30:23.633Z,99.90
2022-11-12T20:33:10.644Z,99.90
2022-11-12T20:36:06.115Z,99.90
2022-11-12T20:38:53.456Z,99.90
2022-11-12T20:41:40.789Z,99.90
2022-11-12T20:44:27.826Z,99.90
2022-11-12T20:47:14.872Z,99.90
2022-11-12T20:50:01.950Z,99.90
2022-11-12T20:52:50.130Z,99.90
2022-11-12T20:55:37.519Z,99.90
2022-11-12T20:58:24.769Z,99.90
2022-11-12T21:01:13.836Z,99.90
2022-11-12T21:04:00.866Z,99.90
2022-11-12T21:06:47.760Z,99.90
2022-11-12T21:09:36.215Z,99.90
2022-11-12T21:12:22.796Z,99.90
2022-11-12T21:15:10.917Z,99.90
2022-11-12T21:18:02.299Z,99.90
2022-11-12T21:20:52.548Z,99.90
2022-11-12T21:23:41.213Z,99.90
2022-11-12T21:26:29.393Z,99.90
2022-11-12T21:29:18.906Z,99.90
2022-11-12T21:32:06.588Z,99.90
2022-11-12T21:34:55.566Z,99.90
2022-11-12T21:37:42.996Z,99.90
2022-11-12T21:40:29.499Z,99.90
2022-11-12T21:43:19.135Z,99.90
2022-11-12T21:46:08.602Z,99.90
2022-11-12T21:48:56.818Z,99.90
2022-11-12T21:51:43.447Z,99.90
2022-11-12T21:54:30.435Z,99.90
2022-11-12T21:57:18.918Z,99.90
2022-11-12T22:00:39.835Z,99.90
2022-11-12T22:03:15.954Z,99.90
2022-11-12T22:06:03.073Z,99.90
2022-11-12T22:08:53.371Z,99.90
2022-11-12T22:11:40.158Z,99.90
2022-11-12T22:14:27.030Z,99.90
2022-11-12T22:17:15.075Z,99.90
2022-11-12T22:20:01.772Z,99.90
2022-11-12T22:22:48.667Z,99.90
2022-11-12T22:25:35.551Z,99.90
2022-11-12T22:28:22.979Z,99.90
2022-11-12T22:31:12.399Z,99.90
2022-11-12T22:34:02.320Z,99.90
2022-11-12T22:36:49.487Z,99.90
2022-11-12T22:39:36.497Z,99.90
2022-11-12T22:42:23.478Z,99.90
2022-11-12T22:45:11.972Z,99.90
2022-11-12T22:48:00.247Z,99.90
2022-11-12T22:50:48.402Z,99.90
2022-11-12T22:53:35.923Z,99.90
2022-11-12T22:56:23.536Z,99.90
2022-11-12T22:59:11.595Z,99.90
2022-11-12T23:01:58.581Z,99.90
2022-11-12T23:04:45.654Z,99.90
2022-11-12T23:07:34.000Z,99.90
2022-11-12T23:10:20.604Z,99.90
2022-11-12T23:13:07.552Z,99.90
2022-11-12T23:15:54.746Z,99.90
2022-11-12T23:18:42.417Z,99.90
2022-11-12T23:21:31.414Z,99.90
2022-11-12T23:24:19.756Z,99.90
2022-11-12T23:27:06.374Z,99.90
2022-11-12T23:29:53.385Z,99.90
2022-11-12T23:32:40.260Z,99.90
2022-11-12T23:35:27.291Z,99.90
2022-11-12T23:38:14.328Z,99.90
2022-11-12T23:41:03.467Z,99.90
2022-11-12T23:43:50.466Z,99.90
2022-11-12T23:46:37.196Z,99.90
2022-11-12T23:49:23.971Z,99.90
2022-11-12T23:52:10.945Z,99.90
2022-11-12T23:54:57.718Z,99.90
2022-11-12T23:57:46.272Z,99.90
